TimeAKDT,TemperatureF,Dew PointF,Humidity,Sea Level PressureIn,VisibilityMPH,Wind Direction,Wind SpeedMPH,Gust SpeedMPH,PrecipitationIn,Events,Conditions,WindDirDegrees,DateUTC
12:53 AM,35.1,32.0,89,29.68,10.0,ESE,9.2,-,N/A,,Clear,120,2012-10-06 08:53:00
1:53 AM,36.0,32.0,86,29.68,10.0,SE,8.1,-,N/A,,Clear,130,2012-10-06 09:53:00
2:53 AM,36.0,32.0,86,29.68,10.0,SSE,8.1,-,N/A,,Scattered Clouds,150,2012-10-06 10:53:00
3:53 AM,35.1,32.0,89,29.67,10.0,SE,5.8,-,N/A,,Scattered Clouds,130,2012-10-06 11:53:00
4:53 AM,35.1,32.0,89,29.66,10.0,ESE,4.6,-,N/A,,Overcast,120,2012-10-06 12:53:00
5:53 AM,34.0,32.0,92,29.66,10.0,SE,5.8,-,N/A,,Clear,130,2012-10-06 13:53:00
6:53 AM,35.1,30.9,85,29.66,10.0,ESE,5.8,-,N/A,,Scattered Clouds,110,2012-10-06 14:53:00
7:53 AM,35.1,32.0,89,29.67,10.0,SE,4.6,-,N/A,,Mostly Cloudy,140,2012-10-06 15:53:00
8:53 AM,35.1,32.0,89,29.68,10.0,Calm,Calm,-,N/A,,Overcast,0,2012-10-06 16:53:00
9:53 AM,35.1,32.0,89,29.68,10.0,SE,4.6,-,N/A,,Mostly Cloudy,140,2012-10-06 17:53:00
10:53 AM,36.0,32.0,86,29.69,10.0,SSE,5.8,-,N/A,,Scattered Clouds,150,2012-10-06 18:53:00
11:53 AM,37.9,33.1,83,29.70,10.0,South,6.9,-,N/A,,Mostly Cloudy,170,2012-10-06 19:53:00
12:53 PM,37.9,34.0,86,29.72,10.0,South,6.9,-,N/A,,Overcast,180,2012-10-06 20:53:00
1:53 PM,39.0,35.1,86,29.73,10.0,South,8.1,-,N/A,,Overcast,190,2012-10-06 21:53:00
2:26 PM,39.2,35.6,87,29.74,10.0,SSW,10.4,-,0.00,,Overcast,210,2012-10-06 22:26:00
2:53 PM,39.9,36.0,86,29.75,10.0,SW,10.4,-,0.00,,Overcast,230,2012-10-06 22:53:00
3:39 PM,39.2,35.6,87,29.76,10.0,SW,9.2,-,N/A,,Overcast,230,2012-10-06 23:39:00
3:53 PM,39.9,37.0,89,29.77,10.0,SW,9.2,-,N/A,,Overcast,230,2012-10-06 23:53:00
4:24 PM,39.2,37.4,93,29.77,10.0,SW,9.2,-,N/A,,Overcast,220,2012-10-07 00:24:00
4:40 PM,39.2,35.6,87,29.78,10.0,SW,9.2,-,N/A,,Overcast,220,2012-10-07 00:40:00
4:53 PM,39.9,36.0,86,29.79,10.0,SSW,6.9,-,N/A,,Overcast,210,2012-10-07 00:53:00
5:53 PM,37.0,35.1,93,29.80,10.0,South,5.8,-,N/A,,Overcast,180,2012-10-07 01:53:00
6:11 PM,37.4,35.6,93,29.80,10.0,South,4.6,-,0.00,,Overcast,180,2012-10-07 02:11:00
6:53 PM,37.0,35.1,93,29.82,6.0,South,5.8,-,0.00,,Overcast,180,2012-10-07 02:53:00
7:03 PM,37.4,35.6,93,29.81,10.0,South,4.6,-,0.00,,Overcast,180,2012-10-07 03:03:00
7:53 PM,36.0,34.0,93,29.83,10.0,South,5.8,-,0.00,,Overcast,190,2012-10-07 03:53:00
8:53 PM,35.1,33.1,92,29.85,10.0,SSE,4.6,-,N/A,,Overcast,160,2012-10-07 04:53:00
9:53 PM,35.1,32.0,89,29.86,10.0,South,6.9,-,N/A,,Overcast,180,2012-10-07 05:53:00
10:53 PM,34.0,32.0,92,29.88,10.0,South,3.5,-,N/A,,Clear,180,2012-10-07 06:53:00
11:53 PM,33.1,30.0,89,29.88,10.0,SSE,3.5,-,N/A,,Clear,160,2012-10-07 07:53:00